Terminal Aerodrome Forecast
Issued by NWS

Home | Current Version | Previous Version | Text Only | Print | Product List | Glossary On
Versions: 1 2 3 4 5 6 7 8 9 10 11 12 13 14 15 16 17 18 19 20 21 22 23
000
FTUS41 KGYX 202210 AAA
TAFPSM
TAF AMD
KPSM 202210Z 2022/2118 01008KT P6SM BKN040 OVC150
     FM210500 01013G21KT P6SM BKN050
     FM211600 03015G24KT P6SM SCT250=

USA.gov is the U.S. government's official web portal to all federal, state and local government web resources and services.